createdAt,value
2022-11-28T00:00:02.152Z,1024.6
2022-11-28T00:01:02.028Z,1024.6
2022-11-28T00:02:02.211Z,1024.6
2022-11-28T00:03:02.748Z,1024.6
2022-11-28T00:04:03.126Z,1024.6
2022-11-28T00:05:02.147Z,1024.6
2022-11-28T00:06:02.253Z,1024.6
2022-11-28T00:07:02.405Z,1024.6
2022-11-28T00:08:02.684Z,1024.6
2022-11-28T00:09:02.556Z,1024.6
2022-11-28T00:10:02.453Z,1024.5
2022-11-28T00:11:02.390Z,1024.5
2022-11-28T00:12:02.387Z,1024.5
2022-11-28T00:13:02.224Z,1024.6
2022-11-28T00:14:02.234Z,1024.6
2022-11-28T00:15:02.095Z,1024.6
2022-11-28T00:16:02.360Z,1024.6
2022-11-28T00:17:02.316Z,1024.5
2022-11-28T00:18:02.168Z,1024.5
2022-11-28T00:19:02.642Z,1024.5
2022-11-28T00:20:02.503Z,1024.5
2022-11-28T00:21:02.348Z,1024.5
2022-11-28T00:22:02.344Z,1024.5
2022-11-28T00:23:02.280Z,1024.5
2022-11-28T00:24:02.137Z,1024.5
2022-11-28T00:25:02.188Z,1024.5
2022-11-28T00:26:02.006Z,1024.5
2022-11-28T00:27:02.023Z,1024.5
2022-11-28T00:28:01.858Z,1024.5
2022-11-28T00:29:01.948Z,1024.5
2022-11-28T00:30:01.790Z,1024.4
2022-11-28T00:31:01.826Z,1024.5
2022-11-28T00:32:02.818Z,1024.5
2022-11-28T00:33:02.741Z,1024.4
2022-11-28T00:34:02.644Z,1024.4
2022-11-28T00:35:02.508Z,1024.4
2022-11-28T00:36:02.552Z,1024.4
2022-11-28T00:37:02.435Z,1024.4
2022-11-28T00:38:02.440Z,1024.4
2022-11-28T00:39:02.426Z,1024.4
2022-11-28T00:40:02.287Z,1024.4
2022-11-28T00:41:02.319Z,1024.4
2022-11-28T00:42:02.247Z,1024.4
2022-11-28T00:43:02.093Z,1024.4
2022-11-28T00:44:02.094Z,1024.4
2022-11-28T00:45:01.975Z,1024.3
2022-11-28T00:46:02.064Z,1024.3
2022-11-28T00:47:01.927Z,1024.4
2022-11-28T00:48:01.974Z,1024.4
2022-11-28T00:49:01.830Z,1024.3
2022-11-28T00:50:01.861Z,1024.3
2022-11-28T00:51:01.687Z,1024.3
2022-11-28T00:52:02.758Z,1024.3
2022-11-28T00:53:02.601Z,1024.3
2022-11-28T00:54:01.808Z,1024.3
2022-11-28T00:55:02.762Z,1024.3
2022-11-28T00:56:02.643Z,1024.3
2022-11-28T00:57:02.684Z,1024.2
2022-11-28T00:58:02.540Z,1024.3
2022-11-28T00:59:02.653Z,1024.2
2022-11-28T01:00:02.490Z,1024.2
2022-11-28T01:01:02.766Z,1024.2
2022-11-28T01:02:02.510Z,1024.2
2022-11-28T01:03:02.259Z,1024.2
2022-11-28T01:04:02.302Z,1024.2
2022-11-28T01:05:02.246Z,1024.1
2022-11-28T01:06:02.109Z,1024.1
2022-11-28T01:07:02.146Z,1024.2
2022-11-28T01:08:01.992Z,1024.1
2022-11-28T01:09:02.050Z,1024.1
2022-11-28T01:10:01.904Z,1024.1
2022-11-28T01:11:01.866Z,1024.1
2022-11-28T01:12:01.720Z,1024.1
2022-11-28T01:13:01.789Z,1024
2022-11-28T01:14:02.779Z,1024
2022-11-28T01:15:02.623Z,1024
2022-11-28T01:16:02.863Z,1023.9
2022-11-28T01:17:01.774Z,1023.9
2022-11-28T01:18:01.786Z,1024
2022-11-28T01:19:01.768Z,1024
2022-11-28T01:20:02.746Z,1024
2022-11-28T01:21:02.604Z,1023.9
2022-11-28T01:22:02.679Z,1024
2022-11-28T01:23:02.543Z,1024
2022-11-28T01:24:02.598Z,1024
2022-11-28T01:25:02.477Z,1023.9
2022-11-28T01:26:02.546Z,1024
2022-11-28T01:27:02.389Z,1024
2022-11-28T01:28:02.420Z,1023.9
2022-11-28T01:29:02.380Z,1023.9
2022-11-28T01:30:02.273Z,1023.9
2022-11-28T01:31:02.742Z,1023.9
2022-11-28T01:32:02.656Z,1023.9
2022-11-28T01:33:02.389Z,1023.9
2022-11-28T01:34:02.436Z,1023.9
2022-11-28T01:35:02.374Z,1023.9
2022-11-28T01:36:02.164Z,1023.9
2022-11-28T01:37:02.218Z,1023.8
2022-11-28T01:38:02.086Z,1023.8
2022-11-28T01:39:02.117Z,1023.7
2022-11-28T01:40:01.975Z,1023.7
2022-11-28T01:41:02.000Z,1023.7
2022-11-28T01:42:01.830Z,1023.8
2022-11-28T01:43:01.993Z,1023.8
2022-11-28T01:44:01.835Z,1023.8
2022-11-28T01:45:01.897Z,1023.8
2022-11-28T01:46:01.703Z,1023.8
2022-11-28T01:47:02.572Z,1023.7
2022-11-28T01:48:02.371Z,1023.7
2022-11-28T01:49:02.335Z,1023.7
2022-11-28T01:50:02.180Z,1023.7
2022-11-28T01:51:02.197Z,1023.6
2022-11-28T01:52:02.048Z,1023.5
2022-11-28T01:53:02.073Z,1023.5
2022-11-28T01:54:01.911Z,1023.5
2022-11-28T01:55:02.213Z,1023.5
2022-11-28T01:56:02.024Z,1023.5
2022-11-28T01:57:02.099Z,1023.5
2022-11-28T01:58:01.925Z,1023.4
2022-11-28T01:59:01.933Z,1023.4
2022-11-28T02:00:01.776Z,1023.5
2022-11-28T02:01:02.099Z,1023.4
2022-11-28T02:02:02.744Z,1023.4
2022-11-28T02:03:02.517Z,1023.4
2022-11-28T02:04:02.541Z,1023.3
2022-11-28T02:05:02.372Z,1023.4
2022-11-28T02:06:02.398Z,1023.4
2022-11-28T02:07:02.355Z,1023.4
2022-11-28T02:08:02.382Z,1023.4
2022-11-28T02:09:02.297Z,1023.3
2022-11-28T02:10:02.234Z,1023.3
2022-11-28T02:11:02.051Z,1023.4
2022-11-28T02:12:02.128Z,1023.3
2022-11-28T02:13:01.980Z,1023.3
2022-11-28T02:14:02.013Z,1023.3
2022-11-28T02:15:01.898Z,1023.3
2022-11-28T02:16:02.081Z,1023.3
2022-11-28T02:17:01.778Z,1023.3
2022-11-28T02:18:01.789Z,1023.3
2022-11-28T02:19:02.724Z,1023.2
2022-11-28T02:20:02.664Z,1023.2
2022-11-28T02:21:02.662Z,1023.2
2022-11-28T02:22:02.530Z,1023.2
2022-11-28T02:23:02.556Z,1023.2
2022-11-28T02:24:02.431Z,1023.2
2022-11-28T02:25:02.605Z,1023.3
2022-11-28T02:26:02.364Z,1023.3
2022-11-28T02:27:02.432Z,1023.2
2022-11-28T02:28:02.324Z,1023.2
2022-11-28T02:29:02.160Z,1023.2
2022-11-28T02:30:02.216Z,1023.3
2022-11-28T02:31:02.054Z,1023.3
2022-11-28T02:32:01.931Z,1023.3
2022-11-28T02:33:01.990Z,1023.4
2022-11-28T02:34:01.833Z,1023.4
2022-11-28T02:35:01.852Z,1023.3
2022-11-28T02:36:01.669Z,1023.3
2022-11-28T02:37:02.738Z,1023.2
2022-11-28T02:38:02.582Z,1023.2
2022-11-28T02:39:02.627Z,1023.2
2022-11-28T02:40:02.488Z,1023.3
2022-11-28T02:41:02.542Z,1023.2
2022-11-28T02:42:02.381Z,1023.1
2022-11-28T02:43:02.423Z,1023.2
2022-11-28T02:44:05.101Z,1023.2
2022-11-28T02:45:01.813Z,1023.2
2022-11-28T02:46:01.818Z,1023.2
2022-11-28T02:47:02.825Z,1023.1
2022-11-28T02:48:02.599Z,1023.2
2022-11-28T02:49:02.655Z,1023.2
2022-11-28T02:50:02.519Z,1023.2
2022-11-28T02:51:02.521Z,1023.2
2022-11-28T02:52:02.404Z,1023.2
2022-11-28T02:53:02.485Z,1023.2
2022-11-28T02:54:02.592Z,1023.2
2022-11-28T02:55:02.281Z,1023.2
2022-11-28T02:56:02.291Z,1023.1
2022-11-28T02:57:02.256Z,1023.2
2022-11-28T02:58:02.087Z,1023.1
2022-11-28T02:59:02.099Z,1023.1
2022-11-28T03:00:02.027Z,1023.1
2022-11-28T03:01:02.334Z,1023.1
2022-11-28T03:02:02.370Z,1023.1
2022-11-28T03:03:02.107Z,1023.1
2022-11-28T03:04:02.133Z,1023.1
2022-11-28T03:05:01.992Z,1023.1
2022-11-28T03:06:02.001Z,1023.1
2022-11-28T03:07:01.825Z,1023.1
2022-11-28T03:08:02.145Z,1023.1
2022-11-28T03:09:01.892Z,1023
2022-11-28T03:10:01.954Z,1023
2022-11-28T03:11:01.739Z,1023.1
2022-11-28T03:12:01.786Z,1023
2022-11-28T03:13:02.703Z,1023.1
2022-11-28T03:14:02.605Z,1023.1
2022-11-28T03:15:02.668Z,1023.1
2022-11-28T03:16:02.666Z,1023.1
2022-11-28T03:17:02.617Z,1023.1
2022-11-28T03:18:02.698Z,1023
2022-11-28T03:19:02.545Z,1023
2022-11-28T03:20:02.634Z,1022.9
2022-11-28T03:21:02.495Z,1023
2022-11-28T03:22:02.580Z,1022.9
2022-11-28T03:23:02.521Z,1023
2022-11-28T03:24:02.475Z,1023
2022-11-28T03:25:02.435Z,1022.9
2022-11-28T03:26:02.295Z,1023
2022-11-28T03:27:02.353Z,1022.9
2022-11-28T03:28:02.257Z,1023
2022-11-28T03:29:02.110Z,1022.9
2022-11-28T03:30:02.249Z,1022.9
2022-11-28T03:31:02.384Z,1023
2022-11-28T03:32:02.006Z,1022.9
2022-11-28T03:33:02.032Z,1023
2022-11-28T03:34:01.967Z,1022.9
2022-11-28T03:35:01.851Z,1022.9
2022-11-28T03:36:01.735Z,1022.9
2022-11-28T03:37:01.724Z,1022.9
2022-11-28T03:38:02.727Z,1022.9
2022-11-28T03:39:02.632Z,1022.9
2022-11-28T03:40:02.642Z,1022.9
2022-11-28T03:41:02.474Z,1022.8
2022-11-28T03:42:02.508Z,1022.9
2022-11-28T03:43:02.476Z,1022.9
2022-11-28T03:44:02.317Z,1022.8
2022-11-28T03:45:02.369Z,1022.8
2022-11-28T03:46:02.310Z,1022.8
2022-11-28T03:47:02.137Z,1022.7
2022-11-28T03:48:01.995Z,1022.7
2022-11-28T03:49:01.833Z,1022.7
2022-11-28T03:50:01.899Z,1022.7
2022-11-28T03:51:01.785Z,1022.8
2022-11-28T03:52:01.783Z,1022.7
2022-11-28T03:53:02.766Z,1022.7
2022-11-28T03:54:02.631Z,1022.7
2022-11-28T03:55:02.667Z,1022.7
2022-11-28T03:56:02.826Z,1022.7
2022-11-28T03:57:02.610Z,1022.7
2022-11-28T03:58:02.543Z,1022.7
2022-11-28T03:59:02.552Z,1022.7
2022-11-28T04:00:02.551Z,1022.7
2022-11-28T04:01:02.822Z,1022.8
2022-11-28T04:02:02.499Z,1022.7
2022-11-28T04:03:02.845Z,1022.7
2022-11-28T04:04:02.587Z,1022.7
2022-11-28T04:05:02.673Z,1022.8
2022-11-28T04:06:02.517Z,1022.8
2022-11-28T04:07:02.581Z,1022.8
2022-11-28T04:08:02.731Z,1022.7
2022-11-28T04:09:02.550Z,1022.8
2022-11-28T04:10:02.473Z,1022.8
2022-11-28T04:11:02.452Z,1022.7
2022-11-28T04:12:02.431Z,1022.7
2022-11-28T04:13:02.392Z,1022.7
2022-11-28T04:14:02.281Z,1022.7
2022-11-28T04:15:02.277Z,1022.7
2022-11-28T04:16:02.202Z,1022.7
2022-11-28T04:17:02.390Z,1022.6
2022-11-28T04:18:02.286Z,1022.7
2022-11-28T04:19:02.101Z,1022.7
2022-11-28T04:20:02.146Z,1022.7
2022-11-28T04:21:02.003Z,1022.7
2022-11-28T04:22:02.065Z,1022.7
2022-11-28T04:23:01.904Z,1022.7
2022-11-28T04:24:01.959Z,1022.7
2022-11-28T04:25:01.778Z,1022.7
2022-11-28T04:26:01.773Z,1022.7
2022-11-28T04:27:02.747Z,1022.6
2022-11-28T04:28:02.664Z,1022.7
2022-11-28T04:29:02.751Z,1022.7
2022-11-28T04:30:02.620Z,1022.6
2022-11-28T04:31:02.602Z,1022.6
2022-11-28T04:32:02.623Z,1022.6
2022-11-28T04:33:02.501Z,1022.7
2022-11-28T04:34:02.427Z,1022.7
2022-11-28T04:35:02.390Z,1022.7
2022-11-28T04:36:02.245Z,1022.7
2022-11-28T04:37:10.274Z,1022.7
2022-11-28T04:38:01.978Z,1022.7
2022-11-28T04:39:02.033Z,1022.7
2022-11-28T04:40:01.909Z,1022.7
2022-11-28T04:41:02.303Z,1022.7
2022-11-28T04:42:02.003Z,1022.7
2022-11-28T04:43:02.045Z,1022.7
2022-11-28T04:44:01.876Z,1022.7
2022-11-28T04:45:01.919Z,1022.8
2022-11-28T04:46:01.998Z,1022.7
2022-11-28T04:47:01.794Z,1022.7
2022-11-28T04:48:01.820Z,1022.7
2022-11-28T04:49:01.750Z,1022.7
2022-11-28T04:50:01.822Z,1022.7
2022-11-28T04:51:02.740Z,1022.7
2022-11-28T04:52:02.596Z,1022.7
2022-11-28T04:53:02.656Z,1022.7
2022-11-28T04:54:02.496Z,1022.7
2022-11-28T04:55:02.531Z,1022.7
2022-11-28T04:56:02.389Z,1022.7
2022-11-28T04:57:02.421Z,1022.7
2022-11-28T04:58:02.404Z,1022.7
2022-11-28T04:59:02.220Z,1022.7
2022-11-28T05:00:02.272Z,1022.7
2022-11-28T05:01:02.421Z,1022.7
2022-11-28T05:02:02.359Z,1022.7
2022-11-28T05:03:02.232Z,1022.7
2022-11-28T05:04:02.062Z,1022.7
2022-11-28T05:05:02.129Z,1022.7
2022-11-28T05:06:01.972Z,1022.7
2022-11-28T05:07:01.957Z,1022.7
2022-11-28T05:08:02.193Z,1022.6
2022-11-28T05:09:02.091Z,1022.7
2022-11-28T05:10:01.954Z,1022.7
2022-11-28T05:11:01.953Z,1022.8
2022-11-28T05:12:01.796Z,1022.7
2022-11-28T05:13:01.833Z,1022.7
2022-11-28T05:14:01.673Z,1022.7
2022-11-28T05:15:02.743Z,1022.7
2022-11-28T05:16:02.694Z,1022.7
2022-11-28T05:17:02.632Z,1022.7
2022-11-28T05:18:02.696Z,1022.7
2022-11-28T05:19:02.595Z,1022.7
2022-11-28T05:20:02.667Z,1022.7
2022-11-28T05:21:02.570Z,1022.7
2022-11-28T05:22:04.550Z,1022.7
2022-11-28T05:23:02.246Z,1022.7
2022-11-28T05:24:02.280Z,1022.7
2022-11-28T05:25:02.241Z,1022.7
2022-11-28T05:26:02.104Z,1022.7
2022-11-28T05:27:02.140Z,1022.7
2022-11-28T05:28:01.958Z,1022.7
2022-11-28T05:29:02.012Z,1022.7
2022-11-28T05:30:01.884Z,1022.6
2022-11-28T05:31:01.926Z,1022.7
2022-11-28T05:32:02.307Z,1022.7
2022-11-28T05:33:02.005Z,1022.7
2022-11-28T05:34:02.054Z,1022.7
2022-11-28T05:35:01.926Z,1022.7
2022-11-28T05:36:01.913Z,1022.7
2022-11-28T05:37:01.771Z,1022.7
2022-11-28T05:38:01.846Z,1022.7
2022-11-28T05:39:01.694Z,1022.6
2022-11-28T05:40:02.764Z,1022.7
2022-11-28T05:41:02.591Z,1022.7
2022-11-28T05:42:02.656Z,1022.7
2022-11-28T05:43:02.593Z,1022.6
2022-11-28T05:44:02.553Z,1022.7
2022-11-28T05:45:02.374Z,1022.7
2022-11-28T05:46:02.700Z,1022.7
2022-11-28T05:47:02.284Z,1022.6
2022-11-28T05:48:02.102Z,1022.6
2022-11-28T05:49:02.167Z,1022.7
2022-11-28T05:50:02.017Z,1022.7
2022-11-28T05:51:02.213Z,1022.7
2022-11-28T05:52:02.026Z,1022.7
2022-11-28T05:53:02.078Z,1022.7
2022-11-28T05:54:01.928Z,1022.7
2022-11-28T05:55:02.118Z,1022.6
2022-11-28T05:56:01.812Z,1022.7
2022-11-28T05:57:01.901Z,1022.7
2022-11-28T05:58:01.705Z,1022.6
2022-11-28T05:59:02.767Z,1022.6
2022-11-28T06:00:02.627Z,1022.6
2022-11-28T06:01:02.660Z,1022.6
2022-11-28T06:02:02.840Z,1022.6
2022-11-28T06:03:02.697Z,1022.6
2022-11-28T06:04:01.923Z,1022.6
2022-11-28T06:05:43.377Z,1022.6
2022-11-28T06:06:02.276Z,1022.6
2022-11-28T06:07:02.314Z,1022.6
2022-11-28T06:08:02.577Z,1022.6
2022-11-28T06:09:02.320Z,1022.6
2022-11-28T06:10:02.397Z,1022.6
2022-11-28T06:11:02.368Z,1022.6
2022-11-28T06:12:02.172Z,1022.6
2022-11-28T06:13:02.161Z,1022.5
2022-11-28T06:14:02.068Z,1022.6
2022-11-28T06:15:02.132Z,1022.6
2022-11-28T06:16:02.376Z,1022.6
2022-11-28T06:17:02.194Z,1022.6
2022-11-28T06:18:02.307Z,1022.5
2022-11-28T06:19:02.538Z,1022.6
2022-11-28T06:20:02.413Z,1022.5
2022-11-28T06:21:02.435Z,1022.6
2022-11-28T06:22:02.421Z,1022.5
2022-11-28T06:23:02.230Z,1022.5
2022-11-28T06:24:02.291Z,1022.6
2022-11-28T06:25:02.113Z,1022.6
2022-11-28T06:26:02.113Z,1022.6
2022-11-28T06:27:01.947Z,1022.6
2022-11-28T06:28:02.115Z,1022.5
2022-11-28T06:29:01.959Z,1022.6
2022-11-28T06:30:02.038Z,1022.6
2022-11-28T06:31:01.865Z,1022.6
2022-11-28T06:32:02.055Z,1022.6
2022-11-28T06:33:01.934Z,1022.6
2022-11-28T06:34:01.836Z,1022.6
2022-11-28T06:35:01.825Z,1022.6
2022-11-28T06:36:02.741Z,1022.6
2022-11-28T06:37:02.751Z,1022.6
2022-11-28T06:38:02.760Z,1022.6
2022-11-28T06:39:02.641Z,1022.6
2022-11-28T06:40:02.685Z,1022.6
2022-11-28T06:41:02.567Z,1022.5
2022-11-28T06:42:02.581Z,1022.5
2022-11-28T06:43:02.481Z,1022.6
2022-11-28T06:44:02.541Z,1022.6
2022-11-28T06:45:02.432Z,1022.6
2022-11-28T06:46:02.655Z,1022.6
2022-11-28T06:47:02.521Z,1022.6
2022-11-28T06:48:02.275Z,1022.6
2022-11-28T06:49:02.331Z,1022.6
2022-11-28T06:50:02.253Z,1022.6
2022-11-28T06:51:02.081Z,1022.6
2022-11-28T06:52:02.069Z,1022.6
2022-11-28T06:53:01.953Z,1022.7
2022-11-28T06:54:02.019Z,1022.6
2022-11-28T06:55:01.817Z,1022.6
2022-11-28T06:56:01.845Z,1022.6
2022-11-28T06:57:01.700Z,1022.6
2022-11-28T06:58:02.764Z,1022.5
2022-11-28T06:59:02.280Z,1022.5
2022-11-28T07:00:02.295Z,1022.6
2022-11-28T07:01:02.471Z,1022.6
2022-11-28T07:02:08.382Z,1022.5
2022-11-28T07:03:02.129Z,1022.5
2022-11-28T07:04:02.135Z,1022.5
2022-11-28T07:05:01.972Z,1022.6
2022-11-28T07:06:02.030Z,1022.6
2022-11-28T07:07:01.899Z,1022.5
2022-11-28T07:08:02.142Z,1022.5
2022-11-28T07:09:01.855Z,1022.5
2022-11-28T07:10:01.950Z,1022.5
2022-11-28T07:11:01.674Z,1022.5
2022-11-28T07:12:02.717Z,1022.5
2022-11-28T07:13:06.189Z,1022.5
2022-11-28T07:14:01.907Z,1022.5
2022-11-28T07:15:01.940Z,1022.5
2022-11-28T07:16:01.737Z,1022.5
2022-11-28T07:17:01.928Z,1022.6
2022-11-28T07:18:01.716Z,1022.5
2022-11-28T07:19:02.719Z,1022.5
2022-11-28T07:20:02.588Z,1022.6
2022-11-28T07:21:02.625Z,1022.5
2022-11-28T07:22:02.509Z,1022.5
2022-11-28T07:23:02.670Z,1022.5
2022-11-28T07:24:02.430Z,1022.5
2022-11-28T07:25:02.493Z,1022.4
2022-11-28T07:26:02.439Z,1022.5
2022-11-28T07:27:02.259Z,1022.4
2022-11-28T07:28:02.293Z,1022.5
2022-11-28T07:29:02.270Z,1022.5
2022-11-28T07:30:02.125Z,1022.5
2022-11-28T07:31:02.056Z,1022.5
2022-11-28T07:32:02.166Z,1022.5
2022-11-28T07:33:01.912Z,1022.4
2022-11-28T07:34:01.879Z,1022.5
2022-11-28T07:35:01.779Z,1022.4
2022-11-28T07:36:01.676Z,1022.4
2022-11-28T07:37:02.693Z,1022.4
2022-11-28T07:38:02.646Z,1022.4
2022-11-28T07:39:02.635Z,1022.4
2022-11-28T07:40:02.596Z,1022.3
2022-11-28T07:41:02.568Z,1022.4
2022-11-28T07:42:02.846Z,1022.3
2022-11-28T07:43:02.698Z,1022.3
2022-11-28T07:44:02.550Z,1022.3
2022-11-28T07:45:02.530Z,1022.3
2022-11-28T07:46:02.939Z,1022.4
2022-11-28T07:47:02.667Z,1022.3
2022-11-28T07:48:02.525Z,1022.3
2022-11-28T07:49:02.477Z,1022.3
2022-11-28T07:50:02.443Z,1022.3
2022-11-28T07:51:02.367Z,1022.3
2022-11-28T07:52:02.351Z,1022.2
2022-11-28T07:53:07.791Z,1022.3
2022-11-28T07:54:02.511Z,1022.3
2022-11-28T07:55:02.487Z,1022.3
2022-11-28T07:56:02.474Z,1022.3
2022-11-28T07:57:13.878Z,1022.3
2022-11-28T07:58:02.603Z,1022.3
2022-11-28T07:59:03.965Z,1022.2
2022-11-28T08:00:01.668Z,1022.2
2022-11-28T08:01:02.653Z,1022.3
2022-11-28T08:02:02.499Z,1022.2
2022-11-28T08:03:02.303Z,1022.2
2022-11-28T08:04:02.462Z,1022.2
2022-11-28T08:05:02.408Z,1022.2
2022-11-28T08:06:03.686Z,1022.2
2022-11-28T08:07:02.446Z,1022.2
2022-11-28T08:08:02.735Z,1022.2
2022-11-28T08:09:02.467Z,1022.2
2022-11-28T08:10:02.446Z,1022.2
2022-11-28T08:11:02.357Z,1022.1
2022-11-28T08:12:02.290Z,1022.1
2022-11-28T08:13:02.303Z,1022.1
2022-11-28T08:14:02.167Z,1022.1
2022-11-28T08:15:02.174Z,1022.1
2022-11-28T08:16:02.015Z,1022.1
2022-11-28T08:17:02.131Z,1022.1
2022-11-28T08:18:02.022Z,1022.1
2022-11-28T08:19:01.852Z,1022.1
2022-11-28T08:20:01.882Z,1022.2
2022-11-28T08:21:01.699Z,1022.2
2022-11-28T08:22:02.710Z,1022.1
2022-11-28T08:23:02.602Z,1022.2
2022-11-28T08:24:02.646Z,1022.2
2022-11-28T08:25:02.728Z,1022.1
2022-11-28T08:26:02.485Z,1022.1
2022-11-28T08:27:02.518Z,1022.1
2022-11-28T08:28:02.372Z,1022.1
2022-11-28T08:29:02.378Z,1022.1
2022-11-28T08:30:02.337Z,1022.1
2022-11-28T08:31:02.511Z,1022.2
2022-11-28T08:32:02.141Z,1022.2
2022-11-28T08:33:02.178Z,1022.2
2022-11-28T08:34:02.033Z,1022.2
2022-11-28T08:35:02.047Z,1022.2
2022-11-28T08:36:01.883Z,1022.2
2022-11-28T08:37:01.931Z,1022.1
2022-11-28T08:38:02.731Z,1022.1
2022-11-28T08:39:25.617Z,1022.2
2022-11-28T08:40:02.385Z,1022.2
2022-11-28T08:41:02.422Z,1022.1
2022-11-28T08:42:02.399Z,1022.2
2022-11-28T08:43:02.294Z,1022.2
2022-11-28T08:44:02.351Z,1022.2
2022-11-28T08:45:02.291Z,1022.2
2022-11-28T08:46:02.525Z,1022.2
2022-11-28T08:47:02.024Z,1022.2
2022-11-28T08:48:02.072Z,1022.2
2022-11-28T08:49:05.195Z,1022.2
2022-11-28T08:50:01.851Z,1022.2
2022-11-28T08:51:01.904Z,1022.2
2022-11-28T08:52:01.908Z,1022.2
2022-11-28T08:53:08.398Z,1022.2
2022-11-28T08:54:02.232Z,1022.2
2022-11-28T08:55:02.063Z,1022.2
2022-11-28T08:56:02.055Z,1022.2
2022-11-28T08:57:01.939Z,1022.2
2022-11-28T08:58:01.987Z,1022.1
2022-11-28T08:59:01.889Z,1022.2
2022-11-28T09:00:01.873Z,1022.2
2022-11-28T09:01:01.892Z,1022.2
2022-11-28T09:02:01.842Z,1022.2
2022-11-28T09:03:01.879Z,1022.2
2022-11-28T09:04:02.080Z,1022.2
2022-11-28T09:05:01.888Z,1022.2
2022-11-28T09:06:01.836Z,1022.2
2022-11-28T09:07:01.831Z,1022.2
2022-11-28T09:08:01.953Z,1022.2
2022-11-28T09:09:01.857Z,1022.1
2022-11-28T09:10:01.717Z,1022.1
2022-11-28T09:11:02.654Z,1022.2
2022-11-28T09:12:02.532Z,1022.1
2022-11-28T09:13:02.609Z,1022.1
2022-11-28T09:14:02.487Z,1022.1
2022-11-28T09:15:02.562Z,1022.1
2022-11-28T09:16:02.454Z,1022.1
2022-11-28T09:17:02.404Z,1022.1
2022-11-28T09:18:02.277Z,1022.1
2022-11-28T09:19:02.232Z,1022.1
2022-11-28T09:20:02.038Z,1022.1
2022-11-28T09:21:02.121Z,1022.1
2022-11-28T09:22:01.956Z,1022.1
2022-11-28T09:23:02.034Z,1022.1
2022-11-28T09:24:01.853Z,1022.1
2022-11-28T09:25:01.876Z,1022.1
2022-11-28T09:26:01.762Z,1022
2022-11-28T09:27:01.735Z,1022
2022-11-28T09:28:02.715Z,1022
2022-11-28T09:29:02.569Z,1021.9
2022-11-28T09:30:02.613Z,1021.9
2022-11-28T09:31:02.729Z,1021.9
2022-11-28T09:32:01.721Z,1022
2022-11-28T09:33:02.800Z,1022
2022-11-28T09:34:01.761Z,1021.8
2022-11-28T09:35:01.792Z,1021.9
2022-11-28T09:36:02.649Z,1021.9
2022-11-28T09:37:05.681Z,1021.8
2022-11-28T09:38:02.365Z,1021.9
2022-11-28T09:39:02.416Z,1021.8
2022-11-28T09:40:15.019Z,1021.8
2022-11-28T09:41:02.123Z,1021.8
2022-11-28T09:42:02.194Z,1021.8
2022-11-28T09:43:02.049Z,1021.8
2022-11-28T09:44:02.050Z,1021.8
2022-11-28T09:45:01.996Z,1021.8
2022-11-28T09:46:02.053Z,1021.7
2022-11-28T09:47:01.979Z,1021.7
2022-11-28T09:48:02.037Z,1021.7
2022-11-28T09:49:01.892Z,1021.8
2022-11-28T09:50:01.949Z,1021.8
2022-11-28T09:51:01.815Z,1021.7
2022-11-28T09:52:02.131Z,1021.7
2022-11-28T09:53:02.166Z,1021.7
2022-11-28T09:54:01.990Z,1021.7
2022-11-28T09:55:01.813Z,1021.7
2022-11-28T09:56:01.817Z,1021.6
2022-11-28T09:57:01.702Z,1021.6
2022-11-28T09:58:02.766Z,1021.6
2022-11-28T09:59:02.601Z,1021.6
2022-11-28T10:00:02.676Z,1021.6
2022-11-28T10:01:02.479Z,1021.7
2022-11-28T10:02:02.467Z,1021.6
2022-11-28T10:03:02.428Z,1021.5
2022-11-28T10:04:03.081Z,1021.5
2022-11-28T10:05:02.057Z,1021.5
2022-11-28T10:06:01.827Z,1021.5
2022-11-28T10:07:01.764Z,1021.5
2022-11-28T10:08:02.926Z,1021.5
2022-11-28T10:09:01.688Z,1021.4
2022-11-28T10:10:02.751Z,1021.4
2022-11-28T10:11:02.596Z,1021.5
2022-11-28T10:12:02.667Z,1021.5
2022-11-28T10:13:02.506Z,1021.4
2022-11-28T10:14:09.201Z,1021.4
2022-11-28T10:15:01.948Z,1021.4
2022-11-28T10:16:01.938Z,1021.4
2022-11-28T10:17:01.968Z,1021.4
2022-11-28T10:18:01.836Z,1021.3
2022-11-28T10:19:02.781Z,1021.4
2022-11-28T10:20:03.307Z,1021.3
2022-11-28T10:21:02.011Z,1021.3
2022-11-28T10:22:02.018Z,1021.3
2022-11-28T10:23:01.917Z,1021.3
2022-11-28T10:24:01.972Z,1021.3
2022-11-28T10:25:01.767Z,1021.2
2022-11-28T10:26:01.813Z,1021.3
2022-11-28T10:27:02.731Z,1021.3
2022-11-28T10:28:02.630Z,1021.2
2022-11-28T10:29:02.708Z,1021.2
2022-11-28T10:30:02.605Z,1021.3
2022-11-28T10:31:02.894Z,1021.2
2022-11-28T10:32:01.815Z,1021.2
2022-11-28T10:33:01.851Z,1021.2
2022-11-28T10:34:01.723Z,1021.2
2022-11-28T10:35:01.763Z,1021.2
2022-11-28T10:36:02.641Z,1021.2
2022-11-28T10:37:02.605Z,1021.2
2022-11-28T10:38:02.582Z,1021.1
2022-11-28T10:39:03.229Z,1021.1
2022-11-28T10:40:02.254Z,1021.1
2022-11-28T10:41:02.116Z,1021.2
2022-11-28T10:42:02.151Z,1021.2
2022-11-28T10:43:02.027Z,1021.2
2022-11-28T10:44:01.969Z,1021.1
2022-11-28T10:45:01.865Z,1021.1
2022-11-28T10:46:02.100Z,1021
2022-11-28T10:47:01.787Z,1021.1
2022-11-28T10:48:41.217Z,1021
2022-11-28T10:49:02.044Z,1021
2022-11-28T10:50:02.101Z,1021
2022-11-28T10:51:01.917Z,1021
2022-11-28T10:52:01.915Z,1021
2022-11-28T10:53:01.815Z,1021
2022-11-28T10:54:01.786Z,1021
2022-11-28T10:55:02.776Z,1021
2022-11-28T10:56:11.639Z,1021
2022-11-28T10:57:02.493Z,1021
2022-11-28T10:58:02.494Z,1021
2022-11-28T10:59:02.412Z,1021
2022-11-28T11:00:02.343Z,1020.9
2022-11-28T11:01:02.474Z,1020.9
2022-11-28T11:02:02.445Z,1020.9
2022-11-28T11:03:02.190Z,1020.9
2022-11-28T11:04:02.231Z,1020.9
2022-11-28T11:05:02.338Z,1020.9
2022-11-28T11:06:02.079Z,1020.9
2022-11-28T11:07:20.078Z,1020.9
2022-11-28T11:08:02.974Z,1020.9
2022-11-28T11:09:01.721Z,1020.9
2022-11-28T11:10:01.793Z,1020.8
2022-11-28T11:11:02.743Z,1020.8
2022-11-28T11:12:01.711Z,1020.9
2022-11-28T11:13:02.742Z,1020.8
2022-11-28T11:14:02.657Z,1020.9
2022-11-28T11:15:02.688Z,1020.8
2022-11-28T11:16:02.757Z,1020.9
2022-11-28T11:17:02.647Z,1020.8
2022-11-28T11:18:02.726Z,1020.9
2022-11-28T11:19:02.594Z,1020.9
2022-11-28T11:20:02.676Z,1020.8
2022-11-28T11:21:02.516Z,1020.8
2022-11-28T11:22:02.599Z,1020.8
2022-11-28T11:23:02.445Z,1020.8
2022-11-28T11:24:02.499Z,1020.8
2022-11-28T11:25:02.464Z,1020.8
2022-11-28T11:26:02.304Z,1020.8
2022-11-28T11:27:02.338Z,1020.8
2022-11-28T11:28:02.342Z,1020.8
2022-11-28T11:29:02.145Z,1020.8
2022-11-28T11:30:02.140Z,1020.8
2022-11-28T11:31:02.131Z,1020.8
2022-11-28T11:32:02.154Z,1020.9
2022-11-28T11:33:02.235Z,1020.8
2022-11-28T11:34:02.086Z,1020.8
2022-11-28T11:35:02.102Z,1020.9
2022-11-28T11:36:01.933Z,1020.9
2022-11-28T11:37:01.978Z,1020.8
2022-11-28T11:38:01.857Z,1020.9
2022-11-28T11:39:01.919Z,1020.9
2022-11-28T11:40:01.743Z,1020.9
2022-11-28T11:41:01.736Z,1020.8
2022-11-28T11:42:02.763Z,1020.8
2022-11-28T11:43:02.624Z,1020.8
2022-11-28T11:44:02.665Z,1020.8
2022-11-28T11:45:02.527Z,1020.8
2022-11-28T11:46:02.842Z,1020.8
2022-11-28T11:47:02.500Z,1020.8
2022-11-28T11:48:02.565Z,1020.8
2022-11-28T11:49:02.448Z,1020.8
2022-11-28T11:50:02.498Z,1020.8
2022-11-28T11:51:02.422Z,1020.8
2022-11-28T11:52:02.241Z,1020.8
2022-11-28T11:53:02.325Z,1020.8
2022-11-28T11:54:02.271Z,1020.8
2022-11-28T11:55:02.084Z,1020.7
2022-11-28T11:56:02.093Z,1020.7
2022-11-28T11:57:34.484Z,1020.7
2022-11-28T11:58:06.415Z,1020.7
2022-11-28T11:59:02.215Z,1020.7
2022-11-28T12:00:02.036Z,1020.7
2022-11-28T12:01:02.070Z,1020.7
2022-11-28T12:02:02.008Z,1020.7
2022-11-28T12:03:02.438Z,1020.7
2022-11-28T12:04:47.182Z,1020.7
2022-11-28T12:05:03.116Z,1020.7
2022-11-28T12:06:15.581Z,1020.6
2022-11-28T12:07:02.464Z,1020.7
2022-11-28T12:08:02.524Z,1020.7
2022-11-28T12:09:02.384Z,1020.7
2022-11-28T12:10:05.287Z,1020.7
2022-11-28T12:11:02.017Z,1020.6
2022-11-28T12:12:02.061Z,1020.6
2022-11-28T12:13:01.890Z,1020.6
2022-11-28T12:14:01.952Z,1020.6
2022-11-28T12:15:01.799Z,1020.6
2022-11-28T12:16:02.066Z,1020.6
2022-11-28T12:17:49.562Z,1020.7
2022-11-28T12:18:02.426Z,1020.6
2022-11-28T12:19:02.426Z,1020.6
2022-11-28T12:20:02.444Z,1020.6
2022-11-28T12:21:02.229Z,1020.6
2022-11-28T12:22:02.287Z,1020.7
2022-11-28T12:23:02.247Z,1020.6
2022-11-28T12:24:02.088Z,1020.6
2022-11-28T12:25:02.122Z,1020.6
2022-11-28T12:26:01.904Z,1020.6
2022-11-28T12:27:01.999Z,1020.7
2022-11-28T12:28:01.800Z,1020.6
2022-11-28T12:29:01.817Z,1020.6
2022-11-28T12:30:01.641Z,1020.6
2022-11-28T12:31:02.942Z,1020.6